createdAt,value
2022-09-22T00:00:39.259Z,1.13
2022-09-22T00:03:06.076Z,0.90
2022-09-22T00:05:33.259Z,1.10
2022-09-22T00:08:01.835Z,1.20
2022-09-22T00:10:29.075Z,1.15
2022-09-22T00:12:56.544Z,1.27
2022-09-22T00:15:23.738Z,1.40
2022-09-22T00:17:51.103Z,1.40
2022-09-22T00:20:18.364Z,1.00
2022-09-22T00:22:49.342Z,1.10
2022-09-22T00:25:17.113Z,1.20
2022-09-22T00:27:45.009Z,1.70
2022-09-22T00:30:13.130Z,1.05
2022-09-22T00:32:40.602Z,1.02
2022-09-22T00:35:08.420Z,1.05
2022-09-22T00:37:35.601Z,0.90
2022-09-22T00:40:02.834Z,1.25
2022-09-22T00:42:30.066Z,1.05
2022-09-22T00:44:57.218Z,1.30
2022-09-22T00:47:47.216Z,1.00
2022-09-22T00:50:22.487Z,1.10
2022-09-22T00:53:15.865Z,1.13
2022-09-22T00:55:43.036Z,0.75
2022-09-22T00:58:14.147Z,0.98
2022-09-22T01:00:41.511Z,1.20
2022-09-22T01:03:12.038Z,1.00
2022-09-22T01:05:39.959Z,0.85
2022-09-22T01:08:08.095Z,0.70
2022-09-22T01:10:35.357Z,1.20
2022-09-22T01:13:24.501Z,0.98
2022-09-22T01:16:10.540Z,0.93
2022-09-22T01:18:37.839Z,1.00
2022-09-22T01:21:28.403Z,0.95
2022-09-22T01:24:02.308Z,1.08
2022-09-22T01:26:32.341Z,0.93
2022-09-22T01:29:18.868Z,0.82
2022-09-22T01:31:51.475Z,1.40
2022-09-22T01:34:29.978Z,0.80
2022-09-22T01:37:03.254Z,0.90
2022-09-22T01:39:38.552Z,0.93
2022-09-22T01:42:11.482Z,0.90
2022-09-22T01:44:41.453Z,0.80
2022-09-22T01:47:12.361Z,0.90
2022-09-22T01:49:41.907Z,0.82
2022-09-22T01:52:21.635Z,0.93
2022-09-22T01:55:06.679Z,0.90
2022-09-22T01:57:46.016Z,0.93
2022-09-22T02:00:13.429Z,0.95
2022-09-22T02:02:47.896Z,1.27
2022-09-22T02:05:24.535Z,1.25
2022-09-22T02:07:55.183Z,0.90
2022-09-22T02:10:27.863Z,0.68
2022-09-22T02:12:55.509Z,0.90
2022-09-22T02:15:41.636Z,0.80
2022-09-22T02:18:15.767Z,0.90
2022-09-22T02:20:43.420Z,0.75
2022-09-22T02:23:10.641Z,0.80
2022-09-22T02:25:38.881Z,1.00
2022-09-22T02:28:07.798Z,1.00
2022-09-22T02:30:35.491Z,1.25
2022-09-22T02:33:03.160Z,1.10
2022-09-22T02:35:31.062Z,1.02
2022-09-22T02:38:06.764Z,1.00
2022-09-22T02:40:46.962Z,0.90
2022-09-22T02:43:17.108Z,0.95
2022-09-22T02:45:53.781Z,0.95
2022-09-22T02:48:24.077Z,1.10
2022-09-22T02:50:52.250Z,1.10
2022-09-22T02:53:19.546Z,1.08
2022-09-22T02:55:47.042Z,1.00
2022-09-22T02:58:15.743Z,1.08
2022-09-22T03:00:43.171Z,0.80
2022-09-22T03:03:13.215Z,1.02
2022-09-22T03:05:40.534Z,0.95
2022-09-22T03:08:07.827Z,0.95
2022-09-22T03:10:35.324Z,1.08
2022-09-22T03:13:16.462Z,1.10
2022-09-22T03:15:45.343Z,1.00
2022-09-22T03:18:12.537Z,0.90
2022-09-22T03:20:39.854Z,0.90
2022-09-22T03:23:07.339Z,1.00
2022-09-22T03:25:34.632Z,1.00
2022-09-22T03:28:01.934Z,0.93
2022-09-22T03:30:29.165Z,0.98
2022-09-22T03:32:56.679Z,1.15
2022-09-22T03:35:23.506Z,1.02
2022-09-22T03:37:50.733Z,1.20
2022-09-22T03:40:17.977Z,0.80
2022-09-22T03:42:45.290Z,1.00
2022-09-22T03:45:12.782Z,1.25
2022-09-22T03:47:40.036Z,1.10
2022-09-22T03:50:07.688Z,1.02
2022-09-22T03:52:34.891Z,1.00
2022-09-22T03:55:03.072Z,0.93
2022-09-22T03:57:30.541Z,0.90
2022-09-22T03:59:57.905Z,0.80
2022-09-22T04:02:25.241Z,0.90
2022-09-22T04:04:52.467Z,0.85
2022-09-22T04:07:19.664Z,1.08
2022-09-22T04:09:46.832Z,1.00
2022-09-22T04:12:14.010Z,0.95
2022-09-22T04:14:41.345Z,1.05
2022-09-22T04:17:09.030Z,0.95
2022-09-22T04:19:36.168Z,1.05
2022-09-22T04:22:04.043Z,1.10
2022-09-22T04:24:31.471Z,0.95
2022-09-22T04:29:45.825Z,0.95
2022-09-22T04:32:14.116Z,1.00
2022-09-22T04:34:41.427Z,1.08
2022-09-22T04:37:08.661Z,1.30
2022-09-22T04:39:36.388Z,1.05
2022-09-22T04:42:03.960Z,1.10
2022-09-22T04:44:34.691Z,1.02
2022-09-22T04:47:02.243Z,0.80
2022-09-22T04:49:29.440Z,0.88
2022-09-22T04:51:56.202Z,1.08
2022-09-22T04:54:23.415Z,1.30
2022-09-22T04:56:50.663Z,0.90
2022-09-22T04:59:17.966Z,1.20
2022-09-22T05:01:45.546Z,1.52
2022-09-22T05:04:12.800Z,1.40
2022-09-22T05:06:41.665Z,1.40
2022-09-22T05:09:08.434Z,1.10
2022-09-22T05:11:35.742Z,1.20
2022-09-22T05:14:02.947Z,1.17
2022-09-22T05:16:32.223Z,1.30
2022-09-22T05:19:00.264Z,1.20
2022-09-22T05:21:27.643Z,1.20
2022-09-22T05:23:56.007Z,1.10
2022-09-22T05:26:23.178Z,1.60
2022-09-22T05:28:51.752Z,1.33
2022-09-22T05:31:19.197Z,1.30
2022-09-22T05:33:46.592Z,1.30
2022-09-22T05:36:13.803Z,1.02
2022-09-22T05:38:40.999Z,0.95
2022-09-22T05:41:08.214Z,1.20
2022-09-22T05:43:35.753Z,1.25
2022-09-22T05:46:03.131Z,1.10
2022-09-22T05:48:31.460Z,1.13
2022-09-22T05:50:59.126Z,1.35
2022-09-22T05:53:25.906Z,1.20
2022-09-22T05:55:53.263Z,1.17
2022-09-22T05:58:20.601Z,1.75
2022-09-22T06:00:47.592Z,1.13
2022-09-22T06:03:14.988Z,1.20
2022-09-22T06:05:44.015Z,1.13
2022-09-22T06:08:11.266Z,1.15
2022-09-22T06:10:39.194Z,1.10
2022-09-22T06:13:07.805Z,1.20
2022-09-22T06:15:36.301Z,1.40
2022-09-22T06:18:07.071Z,1.10
2022-09-22T06:20:35.010Z,1.25
2022-09-22T06:23:02.381Z,1.02
2022-09-22T06:25:29.649Z,1.23
2022-09-22T06:28:05.624Z,1.90
2022-09-22T06:30:33.367Z,1.35
2022-09-22T06:33:00.627Z,1.45
2022-09-22T06:35:36.721Z,1.50
2022-09-22T06:40:32.326Z,1.25
2022-09-22T06:43:02.052Z,1.40
2022-09-22T06:45:29.438Z,1.33
2022-09-22T06:48:00.707Z,1.30
2022-09-22T06:50:32.282Z,1.23
2022-09-22T06:53:03.801Z,1.40
2022-09-22T06:55:31.278Z,1.40
2022-09-22T06:57:59.264Z,1.70
2022-09-22T07:00:31.298Z,1.33
2022-09-22T07:03:05.167Z,1.80
2022-09-22T07:05:32.937Z,1.42
2022-09-22T07:07:59.702Z,1.23
2022-09-22T07:10:27.294Z,1.80
2022-09-22T07:12:54.338Z,1.60
2022-09-22T07:15:22.043Z,1.52
2022-09-22T07:17:52.799Z,1.70
2022-09-22T07:20:21.901Z,1.10
2022-09-22T07:22:49.131Z,1.38
2022-09-22T07:25:16.487Z,1.63
2022-09-22T07:27:43.755Z,1.17
2022-09-22T07:30:10.948Z,1.15
2022-09-22T07:32:38.199Z,1.45
2022-09-22T07:35:05.539Z,1.60
2022-09-22T07:37:33.219Z,1.38
2022-09-22T07:40:00.950Z,1.85
2022-09-22T07:42:28.160Z,1.35
2022-09-22T07:45:13.765Z,1.40
2022-09-22T07:47:59.761Z,1.40
2022-09-22T07:50:26.980Z,1.60
2022-09-22T07:52:54.478Z,1.58
2022-09-22T07:55:24.175Z,1.50
2022-09-22T07:58:01.134Z,1.65
2022-09-22T08:00:33.474Z,1.45
2022-09-22T08:03:01.387Z,1.38
2022-09-22T08:05:29.764Z,1.10
2022-09-22T08:07:58.359Z,1.85
2022-09-22T08:10:26.304Z,1.17
2022-09-22T08:12:54.507Z,1.23
2022-09-22T08:15:26.147Z,1.50
2022-09-22T08:17:58.128Z,1.52
2022-09-22T08:20:29.990Z,1.35
2022-09-22T08:22:58.186Z,1.58
2022-09-22T08:25:25.667Z,1.65
2022-09-22T08:27:52.411Z,1.40
2022-09-22T08:30:19.973Z,1.20
2022-09-22T08:32:47.734Z,1.40
2022-09-22T08:35:14.997Z,1.17
2022-09-22T08:37:43.787Z,1.20
2022-09-22T08:40:15.915Z,1.25
2022-09-22T08:42:45.674Z,1.60
2022-09-22T08:45:30.934Z,1.45
2022-09-22T08:48:34.183Z,1.23
2022-09-22T08:51:34.297Z,1.40
2022-09-22T08:54:03.697Z,1.20
2022-09-22T08:56:57.405Z,1.35
2022-09-22T08:59:42.271Z,1.50
2022-09-22T09:02:28.286Z,1.30
2022-09-22T09:05:14.625Z,1.13
2022-09-22T09:08:06.487Z,1.52
2022-09-22T09:10:52.993Z,1.55
2022-09-22T09:13:42.080Z,1.30
2022-09-22T09:16:35.629Z,1.10
2022-09-22T09:19:24.215Z,1.00
2022-09-22T09:21:53.075Z,1.40
2022-09-22T09:27:38.507Z,1.00
2022-09-22T09:30:22.662Z,1.15
2022-09-22T09:32:52.142Z,1.45
2022-09-22T09:35:28.428Z,1.10
2022-09-22T09:37:58.766Z,1.30
2022-09-22T09:40:26.086Z,1.20
2022-09-22T09:43:04.248Z,1.40
2022-09-22T09:45:45.001Z,1.20
2022-09-22T09:48:20.414Z,1.10
2022-09-22T09:50:47.646Z,1.20
2022-09-22T09:53:30.867Z,1.20
2022-09-22T09:55:58.881Z,0.85
2022-09-22T09:58:44.929Z,1.23
2022-09-22T10:01:14.522Z,0.90
2022-09-22T10:03:47.715Z,1.27
2022-09-22T10:06:24.060Z,0.80
2022-09-22T10:08:51.848Z,1.27
2022-09-22T10:11:30.187Z,1.13
2022-09-22T10:13:57.600Z,1.10
2022-09-22T10:16:30.416Z,1.10
2022-09-22T10:19:03.688Z,1.17
2022-09-22T10:21:30.969Z,1.20
2022-09-22T10:24:00.251Z,1.25
2022-09-22T10:26:30.288Z,1.17
2022-09-22T10:29:18.406Z,0.90
2022-09-22T10:32:06.350Z,1.00
2022-09-22T10:34:40.437Z,1.10
2022-09-22T10:37:10.818Z,1.38
2022-09-22T10:39:46.333Z,1.02
2022-09-22T10:42:35.170Z,1.17
2022-09-22T10:45:16.444Z,1.00
2022-09-22T10:48:16.109Z,1.17
2022-09-22T10:50:51.624Z,1.08
2022-09-22T10:53:18.794Z,1.30
2022-09-22T10:56:15.995Z,1.10
2022-09-22T10:59:09.189Z,1.35
2022-09-22T11:01:36.470Z,1.10
2022-09-22T11:04:33.910Z,1.13
2022-09-22T11:07:28.237Z,0.90
2022-09-22T11:10:51.668Z,1.20
2022-09-22T11:13:40.166Z,0.75
2022-09-22T11:16:33.923Z,0.98
2022-09-22T11:19:25.680Z,0.82
2022-09-22T11:22:04.339Z,0.88
2022-09-22T11:24:44.403Z,0.90
2022-09-22T11:27:46.405Z,0.80
2022-09-22T11:30:23.244Z,0.95
2022-09-22T11:33:03.145Z,1.02
2022-09-22T11:36:07.342Z,1.05
2022-09-22T11:38:46.901Z,0.90
2022-09-22T11:41:30.116Z,0.73
2022-09-22T11:44:17.419Z,0.80
2022-09-22T11:47:00.974Z,0.88
2022-09-22T11:49:28.209Z,0.70
2022-09-22T11:52:05.864Z,0.75
2022-09-22T11:55:00.450Z,1.05
2022-09-22T11:57:33.783Z,0.82
2022-09-22T12:00:05.766Z,1.02
2022-09-22T12:03:03.493Z,0.80
2022-09-22T12:05:43.659Z,0.95
2022-09-22T12:08:16.142Z,0.93
2022-09-22T12:10:47.434Z,0.93
2022-09-22T12:13:21.296Z,0.63
2022-09-22T12:16:11.351Z,0.80
2022-09-22T12:19:08.729Z,0.60
2022-09-22T12:21:55.414Z,1.38
2022-09-22T12:24:22.296Z,0.77
2022-09-22T12:26:50.878Z,0.82
2022-09-22T12:29:20.732Z,0.75
2022-09-22T12:31:50.565Z,0.80
2022-09-22T12:34:23.570Z,0.70
2022-09-22T12:37:22.263Z,0.80
2022-09-22T12:39:49.897Z,0.60
2022-09-22T12:42:38.979Z,0.60
2022-09-22T12:45:06.137Z,0.73
2022-09-22T12:47:41.269Z,0.73
2022-09-22T12:50:41.220Z,0.52
2022-09-22T12:53:22.967Z,0.40
2022-09-22T12:55:51.257Z,0.57
2022-09-22T12:58:20.838Z,0.70
2022-09-22T13:00:49.604Z,0.68
2022-09-22T13:03:25.679Z,0.70
2022-09-22T13:05:56.932Z,0.43
2022-09-22T13:08:32.963Z,0.50
2022-09-22T13:11:09.229Z,0.95
2022-09-22T13:13:47.241Z,0.85
2022-09-22T13:16:14.519Z,0.47
2022-09-22T13:18:42.740Z,0.50
2022-09-22T13:21:14.691Z,0.38
2022-09-22T13:23:56.795Z,0.50
2022-09-22T13:26:40.863Z,0.70
2022-09-22T13:29:14.826Z,0.60
2022-09-22T13:31:51.473Z,0.80
2022-09-22T13:34:34.427Z,0.60
2022-09-22T13:37:01.690Z,0.40
2022-09-22T13:39:33.716Z,0.50
2022-09-22T13:42:12.816Z,0.68
2022-09-22T13:44:43.115Z,0.50
2022-09-22T13:47:18.559Z,0.57
2022-09-22T13:49:51.710Z,0.60
2022-09-22T13:52:27.489Z,0.57
2022-09-22T13:57:30.976Z,0.40
2022-09-22T14:00:01.408Z,0.40
2022-09-22T14:02:31.875Z,0.50
2022-09-22T14:05:08.165Z,0.65
2022-09-22T14:10:24.903Z,0.50
2022-09-22T14:12:51.868Z,0.45
2022-09-22T14:15:37.493Z,0.60
2022-09-22T14:18:10.680Z,0.70
2022-09-22T14:20:43.397Z,0.60
2022-09-22T14:23:30.997Z,0.30
2022-09-22T14:26:03.111Z,0.65
2022-09-22T14:28:34.931Z,0.47
2022-09-22T14:31:02.491Z,0.70
2022-09-22T14:33:33.537Z,0.75
2022-09-22T14:36:02.930Z,0.50
2022-09-22T14:38:35.642Z,0.82
2022-09-22T14:41:03.377Z,0.70
2022-09-22T14:43:38.153Z,0.40
2022-09-22T14:46:21.817Z,0.40
2022-09-22T14:48:49.068Z,0.60
2022-09-22T14:51:22.328Z,0.40
2022-09-22T14:54:05.580Z,0.70
2022-09-22T14:56:34.555Z,0.50
2022-09-22T14:59:26.222Z,0.43
2022-09-22T15:02:12.350Z,0.60
